Hauptseite
METAR-TAF:

METAR-TAF

Flughäfen :

Flughafen Sylt

Westerland, Deutschland

Breite: 54-55N, Länge: 008-21E, Höhe: 16 m

Beobachtung

Neuester Wetterbericht von vor 8 Stunden und 54 Minuten, um 14:20 UTC
Wind 16 kt aus Süd
Temperatur 7°C
Luftfeuchtigkeit 81%
Luftdruck 997 hPa
Sichtweite 10 km oder mehr
Leicht bewölkt in der Höhe von 2900 ft
Durchbrochene Bewölkung in der Höhe von 4200 ft

METAR: EDXW 121420Z 19016KT 9999 FEW029 BKN042 07/04 Q0997

Zeit: 00:14 (23:14 UTC)

Prognose

Neuester Wetterbericht von vor 9 Stunden und 14 Minuten, um 14:00 UTC
Gültige Prognose vom 12 um 15 UTC bis 12 um 18 UTC
Wind 15 kt aus Süd
Sichtweite 10 km oder mehr
Durchbrochene Bewölkung in der Höhe von 3000 ft
Wahrscheinlichkeit 30% :
Zeitweise
vom 12 um 15 UTC bis 12 um 18 UTC
Wind 20 kt aus Süd, Böen bis zu 30 kt

TAF: EDXW 121400Z 1215/1218 19015KT 9999 BKN030 PROB30 TEMPO 1215/1218 19020G30KT

Wetterbeobachtungen und Prognosen von mehr als 4000 Flughäfen (METAR und TAF Bericht).

Die verfügbaren Stationen werden durch gelbe und rote Markierungen auf der Karte dargestellt.

Führen Sie die Maus auf sie, um den Namen der Station zu sehen.

Darauf klicken, um die Beobachtung von Wetterbeobachtungen und Prognosen zu sehen.

Um die Karte zu ändern : klicken Sie auf den grünen Tasten mit einem schwarzen Kreuz Zum Vergrößern, auf den grünen Button mit einem Gedankenstrich zu verkleinern, oder auf die grünen Pfeile für benachbarte Karten.


METAR-TAF: